Time,TemperatureF,DewpointF,PressureIn,WindDirection,WindDirectionDegrees,WindSpeedMPH,WindSpeedGustMPH,Humidity,HourlyPrecipIn,Conditions,Clouds,dailyrainin,SoftwareType,DateUTC
2013-03-26 00:02:00,50.0,46.0,29.97,West,276,0.0,-999.0,85,-99.99,,,-99.99,,2013-03-26 07:02:00,
2013-03-26 00:11:00,50.0,46.0,29.97,West,276,0.0,-999.0,85,-99.99,,,-99.99,,2013-03-26 07:11:00,
2013-03-26 00:22:00,50.0,45.0,29.97,West,276,0.0,-999.0,84,-99.99,,,-99.99,,2013-03-26 07:22:00,
2013-03-26 00:32:00,49.0,44.0,29.96,West,277,0.0,-999.0,84,-99.99,,,-99.99,,2013-03-26 07:32:00,
2013-03-26 00:42:00,49.0,44.0,29.96,West,277,0.0,-999.0,84,-99.99,,,-99.99,,2013-03-26 07:42:00,
2013-03-26 00:52:00,49.0,44.0,29.96,West,277,0.0,-999.0,83,-99.99,,,-99.99,,2013-03-26 07:52:00,
2013-03-26 01:01:00,50.0,45.0,29.96,West,277,0.0,-999.0,83,-99.99,,,-99.99,,2013-03-26 08:01:00,
2013-03-26 01:12:00,50.0,45.0,29.96,West,277,0.0,-999.0,83,-99.99,,,-99.99,,2013-03-26 08:12:00,
2013-03-26 01:21:00,50.0,45.0,29.96,West,277,0.0,-999.0,82,-99.99,,,-99.99,,2013-03-26 08:21:00,
2013-03-26 01:31:00,50.0,44.0,29.96,West,276,0.0,-999.0,81,-99.99,,,-99.99,,2013-03-26 08:31:00,
2013-03-26 01:42:00,50.0,44.0,29.96,West,276,0.0,-999.0,81,-99.99,,,-99.99,,2013-03-26 08:42:00,
2013-03-26 01:51:00,50.0,44.0,29.96,West,277,0.0,-999.0,81,-99.99,,,-99.99,,2013-03-26 08:51:00,
2013-03-26 02:01:00,49.0,44.0,29.96,West,276,0.0,-999.0,82,-99.99,,,-99.99,,2013-03-26 09:01:00,
2013-03-26 02:11:00,49.0,44.0,29.96,West,276,0.0,-999.0,82,-99.99,,,-99.99,,2013-03-26 09:11:00,
2013-03-26 02:21:00,48.0,43.0,29.96,West,277,0.0,-999.0,82,-99.99,,,-99.99,,2013-03-26 09:21:00,
2013-03-26 02:32:00,48.0,43.0,29.96,West,277,0.0,-999.0,82,-99.99,,,-99.99,,2013-03-26 09:32:00,
2013-03-26 02:42:00,48.0,43.0,29.96,West,277,0.0,-999.0,82,-99.99,,,-99.99,,2013-03-26 09:42:00,
2013-03-26 02:52:00,47.0,42.0,29.96,West,276,0.0,-999.0,82,-99.99,,,-99.99,,2013-03-26 09:52:00,
2013-03-26 03:02:00,47.0,42.0,29.96,West,277,0.0,-999.0,83,-99.99,,,-99.99,,2013-03-26 10:02:00,
2013-03-26 03:12:00,47.0,42.0,29.96,West,277,0.0,-999.0,83,-99.99,,,-99.99,,2013-03-26 10:12:00,
2013-03-26 03:22:00,47.0,42.0,29.96,West,277,0.0,-999.0,82,-99.99,,,-99.99,,2013-03-26 10:22:00,
2013-03-26 03:32:00,46.0,41.0,29.96,West,277,0.0,-999.0,82,-99.99,,,-99.99,,2013-03-26 10:32:00,
2013-03-26 03:42:00,46.0,41.0,29.96,West,277,0.0,-999.0,82,-99.99,,,-99.99,,2013-03-26 10:42:00,
2013-03-26 03:52:00,46.0,41.0,29.96,West,277,0.0,-999.0,82,-99.99,,,-99.99,,2013-03-26 10:52:00,
2013-03-26 04:02:00,46.0,41.0,29.95,West,277,0.0,-999.0,83,-99.99,,,-99.99,,2013-03-26 11:02:00,
2013-03-26 04:11:00,46.0,41.0,29.95,West,277,0.0,-999.0,83,-99.99,,,-99.99,,2013-03-26 11:11:00,
2013-03-26 04:21:00,45.0,40.0,29.96,West,277,0.0,-999.0,83,-99.99,,,-99.99,,2013-03-26 11:21:00,
2013-03-26 04:32:00,45.0,40.0,29.95,West,277,0.0,-999.0,83,-99.99,,,-99.99,,2013-03-26 11:32:00,
2013-03-26 04:42:00,45.0,40.0,29.95,West,277,0.0,-999.0,83,-99.99,,,-99.99,,2013-03-26 11:42:00,
2013-03-26 04:52:00,45.0,40.0,29.96,West,277,0.0,-999.0,84,-99.99,,,-99.99,,2013-03-26 11:52:00,
2013-03-26 05:02:00,45.0,40.0,29.96,West,277,0.0,-999.0,84,-99.99,,,-99.99,,2013-03-26 12:02:00,
2013-03-26 05:11:00,44.0,39.0,29.96,West,276,0.0,-999.0,84,-99.99,,,-99.99,,2013-03-26 12:11:00,
2013-03-26 05:21:00,44.0,39.0,29.96,West,276,0.0,-999.0,84,-99.99,,,-99.99,,2013-03-26 12:21:00,
2013-03-26 05:31:00,44.0,40.0,29.96,West,276,0.0,-999.0,85,-99.99,,,-99.99,,2013-03-26 12:31:00,
2013-03-26 05:42:00,44.0,40.0,29.96,West,276,0.0,-999.0,85,-99.99,,,-99.99,,2013-03-26 12:42:00,
2013-03-26 05:52:00,44.0,40.0,29.96,West,276,0.0,-999.0,85,-99.99,,,-99.99,,2013-03-26 12:52:00,
2013-03-26 06:02:00,44.0,40.0,29.96,West,277,0.0,-999.0,85,-99.99,,,-99.99,,2013-03-26 13:02:00,
2013-03-26 06:11:00,44.0,40.0,29.96,West,277,0.0,-999.0,85,-99.99,,,-99.99,,2013-03-26 13:11:00,
2013-03-26 06:22:00,43.0,39.0,29.96,West,276,0.0,-999.0,86,-99.99,,,-99.99,,2013-03-26 13:22:00,
2013-03-26 06:32:00,43.0,39.0,29.96,West,277,0.0,-999.0,86,-99.99,,,-99.99,,2013-03-26 13:32:00,
2013-03-26 06:42:00,43.0,39.0,29.96,West,277,0.0,-999.0,86,-99.99,,,-99.99,,2013-03-26 13:42:00,
2013-03-26 06:52:00,43.0,39.0,29.96,West,277,0.0,-999.0,86,-99.99,,,-99.99,,2013-03-26 13:52:00,
2013-03-26 07:01:00,43.0,39.0,29.96,West,277,0.0,-999.0,87,-99.99,,,-99.99,,2013-03-26 14:01:00,
2013-03-26 07:11:00,43.0,39.0,29.96,West,277,0.0,-999.0,87,-99.99,,,-99.99,,2013-03-26 14:11:00,
2013-03-26 07:22:00,43.0,39.0,29.97,West,277,0.0,-999.0,87,-99.99,,,-99.99,,2013-03-26 14:22:00,
2013-03-26 07:32:00,43.0,39.0,29.97,West,277,0.0,-999.0,87,-99.99,,,-99.99,,2013-03-26 14:32:00,
2013-03-26 07:42:00,43.0,39.0,29.97,West,277,0.0,-999.0,87,-99.99,,,-99.99,,2013-03-26 14:42:00,
2013-03-26 07:52:00,43.0,40.0,29.97,West,277,0.0,-999.0,88,-99.99,,,-99.99,,2013-03-26 14:52:00,
2013-03-26 08:02:00,44.0,41.0,29.98,West,277,0.0,-999.0,88,-99.99,,,-99.99,,2013-03-26 15:02:00,
2013-03-26 08:12:00,44.0,41.0,29.98,West,277,0.0,-999.0,88,-99.99,,,-99.99,,2013-03-26 15:12:00,
2013-03-26 08:21:00,45.0,42.0,29.98,West,277,0.0,-999.0,89,-99.99,,,-99.99,,2013-03-26 15:21:00,
2013-03-26 08:32:00,48.0,45.0,29.98,West,276,0.0,-999.0,88,-99.99,,,-99.99,,2013-03-26 15:32:00,
2013-03-26 08:42:00,48.0,45.0,29.98,West,276,0.0,-999.0,88,-99.99,,,-99.99,,2013-03-26 15:42:00,
2013-03-26 08:52:00,50.0,45.0,29.98,West,276,0.0,-999.0,84,-99.99,,,-99.99,,2013-03-26 15:52:00,
2013-03-26 09:02:00,52.0,46.0,29.98,West,277,0.0,-999.0,80,-99.99,,,-99.99,,2013-03-26 16:02:00,
2013-03-26 09:12:00,52.0,46.0,29.98,West,277,0.0,-999.0,80,-99.99,,,-99.99,,2013-03-26 16:12:00,
2013-03-26 09:22:00,54.0,47.0,29.99,West,277,0.0,-999.0,77,-99.99,,,-99.99,,2013-03-26 16:22:00,
2013-03-26 09:32:00,57.0,48.0,29.99,West,276,0.0,-999.0,72,-99.99,,,-99.99,,2013-03-26 16:32:00,
2013-03-26 09:42:00,57.0,48.0,29.99,West,276,0.0,-999.0,72,-99.99,,,-99.99,,2013-03-26 16:42:00,
2013-03-26 09:53:00,58.0,49.0,29.99,West,277,0.0,-999.0,71,-99.99,,,-99.99,,2013-03-26 16:53:00,
2013-03-26 10:02:00,59.0,49.0,29.99,West,276,1.0,-999.0,70,-99.99,,,-99.99,,2013-03-26 17:02:00,
2013-03-26 10:12:00,59.0,49.0,29.99,West,276,1.0,-999.0,70,-99.99,,,-99.99,,2013-03-26 17:12:00,
2013-03-26 10:22:00,60.0,50.0,29.99,West,276,0.0,-999.0,70,-99.99,,,-99.99,,2013-03-26 17:22:00,
2013-03-26 10:32:00,60.0,50.0,29.99,West,276,0.0,-999.0,70,-99.99,,,-99.99,,2013-03-26 17:32:00,
2013-03-26 10:42:00,60.0,50.0,29.99,West,276,0.0,-999.0,70,-99.99,,,-99.99,,2013-03-26 17:42:00,
2013-03-26 10:52:00,62.0,51.0,29.99,West,261,0.0,-999.0,66,-99.99,,,-99.99,,2013-03-26 17:52:00,
2013-03-26 11:01:00,63.0,51.0,29.99,West,268,0.0,-999.0,64,-99.99,,,-99.99,,2013-03-26 18:01:00,
2013-03-26 11:12:00,63.0,51.0,29.99,West,268,0.0,-999.0,64,-99.99,,,-99.99,,2013-03-26 18:12:00,
2013-03-26 11:22:00,63.0,51.0,29.99,West,268,0.0,-999.0,64,-99.99,,,-99.99,,2013-03-26 18:22:00,
2013-03-26 11:33:00,65.0,50.0,29.99,West,264,1.0,-999.0,59,-99.99,,,-99.99,,2013-03-26 18:33:00,
2013-03-26 11:42:00,65.0,50.0,29.99,West,264,1.0,-999.0,59,-99.99,,,-99.99,,2013-03-26 18:42:00,
2013-03-26 11:52:00,65.0,50.0,29.99,West,275,2.0,-999.0,59,-99.99,,,-99.99,,2013-03-26 18:52:00,
2013-03-26 12:02:00,66.0,49.0,29.98,West,269,1.0,-999.0,55,-99.99,,,-99.99,,2013-03-26 19:02:00,
2013-03-26 12:11:00,66.0,49.0,29.98,West,269,1.0,-999.0,55,-99.99,,,-99.99,,2013-03-26 19:11:00,
2013-03-26 12:22:00,67.0,47.0,29.98,SW,236,1.0,-999.0,49,-99.99,,,-99.99,,2013-03-26 19:22:00,
2013-03-26 12:32:00,67.0,47.0,29.98,SW,236,1.0,-999.0,49,-99.99,,,-99.99,,2013-03-26 19:32:00,
2013-03-26 12:42:00,67.0,47.0,29.98,SW,236,1.0,-999.0,49,-99.99,,,-99.99,,2013-03-26 19:42:00,
2013-03-26 12:53:00,67.0,51.0,29.98,WNW,293,3.0,-999.0,56,-99.99,,,-99.99,,2013-03-26 19:53:00,
2013-03-26 13:01:00,67.0,51.0,29.97,West,280,2.0,-999.0,57,-99.99,,,-99.99,,2013-03-26 20:01:00,
2013-03-26 13:12:00,67.0,51.0,29.97,West,280,2.0,-999.0,57,-99.99,,,-99.99,,2013-03-26 20:12:00,
2013-03-26 13:22:00,67.0,51.0,29.97,WNW,286,3.0,-999.0,57,-99.99,,,-99.99,,2013-03-26 20:22:00,
2013-03-26 13:31:00,67.0,51.0,29.97,West,265,2.0,-999.0,57,-99.99,,,-99.99,,2013-03-26 20:31:00,
2013-03-26 13:42:00,67.0,51.0,29.97,West,265,2.0,-999.0,57,-99.99,,,-99.99,,2013-03-26 20:42:00,
2013-03-26 13:52:00,67.0,50.0,29.97,West,273,3.0,-999.0,55,-99.99,,,-99.99,,2013-03-26 20:52:00,
2013-03-26 14:01:00,67.0,50.0,29.96,West,259,4.0,-999.0,55,-99.99,,,-99.99,,2013-03-26 21:01:00,
2013-03-26 14:12:00,67.0,50.0,29.96,West,259,4.0,-999.0,55,-99.99,,,-99.99,,2013-03-26 21:12:00,
2013-03-26 14:22:00,67.0,50.0,29.96,West,259,4.0,-999.0,55,-99.99,,,-99.99,,2013-03-26 21:22:00,
2013-03-26 14:32:00,67.0,50.0,29.96,West,259,4.0,-999.0,55,-99.99,,,-99.99,,2013-03-26 21:32:00,
2013-03-26 14:42:00,67.0,50.0,29.96,West,259,4.0,-999.0,55,-99.99,,,-99.99,,2013-03-26 21:42:00,
2013-03-26 15:22:00,66.0,53.0,29.96,WSW,254,3.0,-999.0,62,-99.99,,,-99.99,,2013-03-26 22:22:00,
2013-03-26 15:32:00,66.0,53.0,29.96,WSW,254,3.0,-999.0,62,-99.99,,,-99.99,,2013-03-26 22:32:00,
2013-03-26 15:41:00,66.0,53.0,29.96,WSW,254,3.0,-999.0,62,-99.99,,,-99.99,,2013-03-26 22:41:00,
2013-03-26 16:22:00,66.0,51.0,29.95,WNW,295,2.0,-999.0,59,-99.99,,,-99.99,,2013-03-26 23:22:00,
2013-03-26 16:32:00,66.0,51.0,29.94,West,271,2.0,-999.0,59,-99.99,,,-99.99,,2013-03-26 23:32:00,
2013-03-26 16:42:00,66.0,51.0,29.94,West,271,2.0,-999.0,59,-99.99,,,-99.99,,2013-03-26 23:42:00,
2013-03-26 16:52:00,66.0,51.0,29.94,WNW,300,2.0,-999.0,59,-99.99,,,-99.99,,2013-03-26 23:52:00,
2013-03-26 17:01:00,65.0,51.0,29.94,WNW,284,2.0,-999.0,60,-99.99,,,-99.99,,2013-03-27 00:01:00,
2013-03-26 17:12:00,65.0,51.0,29.94,WNW,284,2.0,-999.0,60,-99.99,,,-99.99,,2013-03-27 00:12:00,
2013-03-26 17:22:00,64.0,50.0,29.94,West,275,1.0,-999.0,61,-99.99,,,-99.99,,2013-03-27 00:22:00,
2013-03-26 17:32:00,64.0,50.0,29.94,WSW,245,1.0,-999.0,61,-99.99,,,-99.99,,2013-03-27 00:32:00,
2013-03-26 17:42:00,64.0,50.0,29.94,WSW,245,1.0,-999.0,61,-99.99,,,-99.99,,2013-03-27 00:42:00,
2013-03-26 17:52:00,64.0,52.0,29.94,West,279,1.0,-999.0,64,-99.99,,,-99.99,,2013-03-27 00:52:00,
2013-03-26 18:01:00,63.0,51.0,29.94,West,259,1.0,-999.0,65,-99.99,,,-99.99,,2013-03-27 01:01:00,
2013-03-26 18:11:00,63.0,51.0,29.94,West,259,1.0,-999.0,65,-99.99,,,-99.99,,2013-03-27 01:11:00,
2013-03-26 18:22:00,63.0,51.0,29.94,WSW,251,0.0,-999.0,66,-99.99,,,-99.99,,2013-03-27 01:22:00,
2013-03-26 18:32:00,63.0,51.0,29.94,WSW,251,0.0,-999.0,66,-99.99,,,-99.99,,2013-03-27 01:32:00,
2013-03-26 18:42:00,63.0,51.0,29.94,WSW,251,0.0,-999.0,66,-99.99,,,-99.99,,2013-03-27 01:42:00,
2013-03-26 18:52:00,60.0,50.0,29.94,SW,235,0.0,-999.0,70,-99.99,,,-99.99,,2013-03-27 01:52:00,
2013-03-26 19:02:00,59.0,50.0,29.95,SW,217,0.0,-999.0,71,-99.99,,,-99.99,,2013-03-27 02:02:00,
2013-03-26 19:12:00,59.0,50.0,29.95,SW,217,0.0,-999.0,71,-99.99,,,-99.99,,2013-03-27 02:12:00,
2013-03-26 19:21:00,59.0,50.0,29.95,SW,218,0.0,-999.0,71,-99.99,,,-99.99,,2013-03-27 02:21:00,
2013-03-26 19:31:00,58.0,49.0,29.95,SW,218,0.0,-999.0,71,-99.99,,,-99.99,,2013-03-27 02:31:00,
2013-03-26 19:42:00,58.0,49.0,29.95,SW,218,0.0,-999.0,71,-99.99,,,-99.99,,2013-03-27 02:42:00,
2013-03-26 19:52:00,57.0,48.0,29.95,SW,218,0.0,-999.0,72,-99.99,,,-99.99,,2013-03-27 02:52:00,
2013-03-26 20:02:00,56.0,47.0,29.96,SW,219,0.0,-999.0,72,-99.99,,,-99.99,,2013-03-27 03:02:00,
2013-03-26 20:11:00,56.0,47.0,29.96,SW,219,0.0,-999.0,72,-99.99,,,-99.99,,2013-03-27 03:11:00,
2013-03-26 20:22:00,56.0,47.0,29.96,SW,219,0.0,-999.0,73,-99.99,,,-99.99,,2013-03-27 03:22:00,
2013-03-26 20:32:00,56.0,48.0,29.96,SW,219,0.0,-999.0,74,-99.99,,,-99.99,,2013-03-27 03:32:00,
2013-03-26 20:42:00,56.0,48.0,29.96,SW,219,0.0,-999.0,74,-99.99,,,-99.99,,2013-03-27 03:42:00,
2013-03-26 20:53:00,55.0,47.0,29.96,SW,219,0.0,-999.0,75,-99.99,,,-99.99,,2013-03-27 03:53:00,
2013-03-26 21:02:00,55.0,48.0,29.96,SW,218,0.0,-999.0,77,-99.99,,,-99.99,,2013-03-27 04:02:00,
2013-03-26 21:12:00,55.0,48.0,29.96,SW,218,0.0,-999.0,77,-99.99,,,-99.99,,2013-03-27 04:12:00,
2013-03-26 21:22:00,54.0,47.0,29.96,SW,218,0.0,-999.0,77,-99.99,,,-99.99,,2013-03-27 04:22:00,
2013-03-26 21:32:00,54.0,47.0,29.96,SW,218,0.0,-999.0,77,-99.99,,,-99.99,,2013-03-27 04:32:00,
2013-03-26 21:42:00,54.0,47.0,29.96,SW,218,0.0,-999.0,77,-99.99,,,-99.99,,2013-03-27 04:42:00,
2013-03-26 21:52:00,53.0,46.0,29.98,SW,219,0.0,-999.0,78,-99.99,,,-99.99,,2013-03-27 04:52:00,
2013-03-26 22:02:00,52.0,46.0,29.98,SW,219,0.0,-999.0,80,-99.99,,,-99.99,,2013-03-27 05:02:00,
2013-03-26 22:12:00,52.0,46.0,29.98,SW,219,0.0,-999.0,80,-99.99,,,-99.99,,2013-03-27 05:12:00,
2013-03-26 22:22:00,53.0,47.0,29.98,SW,219,0.0,-999.0,81,-99.99,,,-99.99,,2013-03-27 05:22:00,
2013-03-26 22:32:00,52.0,47.0,29.98,SW,218,0.0,-999.0,82,-99.99,,,-99.99,,2013-03-27 05:32:00,
2013-03-26 22:42:00,52.0,47.0,29.98,SW,218,0.0,-999.0,82,-99.99,,,-99.99,,2013-03-27 05:42:00,
2013-03-26 22:52:00,52.0,47.0,29.99,SW,218,0.0,-999.0,83,-99.99,,,-99.99,,2013-03-27 05:52:00,
2013-03-26 23:01:00,51.0,46.0,29.99,SW,219,0.0,-999.0,83,-99.99,,,-99.99,,2013-03-27 06:01:00,
2013-03-26 23:11:00,51.0,46.0,29.99,SW,219,0.0,-999.0,83,-99.99,,,-99.99,,2013-03-27 06:11:00,
2013-03-26 23:22:00,51.0,46.0,29.98,SW,218,0.0,-999.0,84,-99.99,,,-99.99,,2013-03-27 06:22:00,
2013-03-26 23:32:00,51.0,47.0,29.98,SW,219,0.0,-999.0,85,-99.99,,,-99.99,,2013-03-27 06:32:00,
2013-03-26 23:42:00,51.0,47.0,29.98,SW,219,0.0,-999.0,85,-99.99,,,-99.99,,2013-03-27 06:42:00,
2013-03-26 23:52:00,50.0,46.0,29.98,SW,219,0.0,-999.0,85,-99.99,,,-99.99,,2013-03-27 06:52:00,